sensor_id;sensor_type;location;lat;lon;timestamp;P1;durP1;ratioP1;P2;durP2;ratioP2
11854;SDS011;5987;53.140;8.904;2023-11-19T00:00:07;3.33;;;2.30;;
11854;SDS011;5987;53.140;8.904;2023-11-19T00:03:15;3.23;;;2.77;;
11854;SDS011;5987;53.140;8.904;2023-11-19T00:06:19;4.10;;;3.67;;
11854;SDS011;5987;53.140;8.904;2023-11-19T00:09:23;3.17;;;2.87;;
11854;SDS011;5987;53.140;8.904;2023-11-19T00:12:28;3.50;;;2.73;;
11854;SDS011;5987;53.140;8.904;2023-11-19T00:15:32;3.67;;;3.20;;
11854;SDS011;5987;53.140;8.904;2023-11-19T00:18:36;6.10;;;3.43;;
11854;SDS011;5987;53.140;8.904;2023-11-19T00:21:40;4.03;;;3.27;;
11854;SDS011;5987;53.140;8.904;2023-11-19T00:24:43;4.10;;;3.03;;
11854;SDS011;5987;53.140;8.904;2023-11-19T00:27:49;5.67;;;3.47;;
11854;SDS011;5987;53.140;8.904;2023-11-19T00:30:55;3.70;;;3.10;;
11854;SDS011;5987;53.140;8.904;2023-11-19T00:33:59;4.13;;;3.57;;
11854;SDS011;5987;53.140;8.904;2023-11-19T00:37:03;5.70;;;3.53;;
11854;SDS011;5987;53.140;8.904;2023-11-19T00:40:08;4.83;;;3.70;;
11854;SDS011;5987;53.140;8.904;2023-11-19T00:43:15;6.73;;;4.30;;
11854;SDS011;5987;53.140;8.904;2023-11-19T00:46:19;7.07;;;4.80;;
11854;SDS011;5987;53.140;8.904;2023-11-19T00:49:23;7.60;;;5.43;;
11854;SDS011;5987;53.140;8.904;2023-11-19T00:52:27;7.37;;;5.60;;
11854;SDS011;5987;53.140;8.904;2023-11-19T00:55:30;6.43;;;4.53;;
11854;SDS011;5987;53.140;8.904;2023-11-19T00:58:36;7.83;;;5.20;;
11854;SDS011;5987;53.140;8.904;2023-11-19T01:01:39;7.60;;;5.60;;
11854;SDS011;5987;53.140;8.904;2023-11-19T01:04:43;7.57;;;5.30;;
11854;SDS011;5987;53.140;8.904;2023-11-19T01:07:47;6.70;;;4.90;;
11854;SDS011;5987;53.140;8.904;2023-11-19T01:10:51;8.00;;;5.60;;
11854;SDS011;5987;53.140;8.904;2023-11-19T01:13:57;7.70;;;5.73;;
11854;SDS011;5987;53.140;8.904;2023-11-19T01:17:00;7.07;;;5.43;;
11854;SDS011;5987;53.140;8.904;2023-11-19T01:20:06;10.77;;;6.47;;
11854;SDS011;5987;53.140;8.904;2023-11-19T01:23:13;6.90;;;5.10;;
11854;SDS011;5987;53.140;8.904;2023-11-19T01:26:17;8.83;;;5.67;;
11854;SDS011;5987;53.140;8.904;2023-11-19T01:29:22;7.87;;;5.67;;
11854;SDS011;5987;53.140;8.904;2023-11-19T01:32:26;9.03;;;6.50;;
11854;SDS011;5987;53.140;8.904;2023-11-19T01:35:30;8.63;;;6.17;;
11854;SDS011;5987;53.140;8.904;2023-11-19T01:38:34;8.57;;;6.10;;
11854;SDS011;5987;53.140;8.904;2023-11-19T01:41:37;9.30;;;5.93;;
11854;SDS011;5987;53.140;8.904;2023-11-19T01:44:53;8.63;;;6.20;;
11854;SDS011;5987;53.140;8.904;2023-11-19T01:48:02;9.57;;;6.37;;
11854;SDS011;5987;53.140;8.904;2023-11-19T01:51:06;9.17;;;6.03;;
11854;SDS011;5987;53.140;8.904;2023-11-19T01:54:11;9.63;;;6.00;;
11854;SDS011;5987;53.140;8.904;2023-11-19T01:57:17;8.53;;;6.20;;
11854;SDS011;5987;53.140;8.904;2023-11-19T02:00:22;10.50;;;6.73;;
11854;SDS011;5987;53.140;8.904;2023-11-19T02:03:27;9.93;;;6.37;;
11854;SDS011;5987;53.140;8.904;2023-11-19T02:06:31;11.30;;;6.97;;
11854;SDS011;5987;53.140;8.904;2023-11-19T02:09:41;8.13;;;7.23;;
11854;SDS011;5987;53.140;8.904;2023-11-19T02:12:45;10.70;;;7.20;;
11854;SDS011;5987;53.140;8.904;2023-11-19T02:15:51;10.00;;;6.80;;
11854;SDS011;5987;53.140;8.904;2023-11-19T02:18:56;9.43;;;6.97;;
11854;SDS011;5987;53.140;8.904;2023-11-19T02:22:00;10.83;;;7.27;;
11854;SDS011;5987;53.140;8.904;2023-11-19T02:25:04;13.00;;;7.97;;
11854;SDS011;5987;53.140;8.904;2023-11-19T02:28:20;13.73;;;8.20;;
11854;SDS011;5987;53.140;8.904;2023-11-19T02:31:24;12.93;;;8.43;;
11854;SDS011;5987;53.140;8.904;2023-11-19T02:34:29;14.17;;;9.07;;
11854;SDS011;5987;53.140;8.904;2023-11-19T02:37:32;13.17;;;8.97;;
11854;SDS011;5987;53.140;8.904;2023-11-19T02:40:37;16.67;;;9.43;;
11854;SDS011;5987;53.140;8.904;2023-11-19T02:43:42;16.87;;;9.47;;
11854;SDS011;5987;53.140;8.904;2023-11-19T02:46:45;16.53;;;10.53;;
11854;SDS011;5987;53.140;8.904;2023-11-19T02:49:50;15.17;;;8.87;;
11854;SDS011;5987;53.140;8.904;2023-11-19T02:52:55;18.37;;;11.07;;
11854;SDS011;5987;53.140;8.904;2023-11-19T02:56:00;18.47;;;11.60;;
11854;SDS011;5987;53.140;8.904;2023-11-19T02:59:23;17.30;;;11.57;;
11854;SDS011;5987;53.140;8.904;2023-11-19T03:02:29;22.57;;;12.27;;
11854;SDS011;5987;53.140;8.904;2023-11-19T03:05:35;18.60;;;11.90;;
11854;SDS011;5987;53.140;8.904;2023-11-19T03:08:42;22.50;;;12.10;;
11854;SDS011;5987;53.140;8.904;2023-11-19T03:11:45;27.17;;;13.83;;
11854;SDS011;5987;53.140;8.904;2023-11-19T03:14:50;19.93;;;11.53;;
11854;SDS011;5987;53.140;8.904;2023-11-19T03:17:54;22.47;;;12.87;;
11854;SDS011;5987;53.140;8.904;2023-11-19T03:20:58;23.87;;;13.70;;
11854;SDS011;5987;53.140;8.904;2023-11-19T03:24:02;25.27;;;13.47;;
11854;SDS011;5987;53.140;8.904;2023-11-19T03:27:06;29.40;;;14.70;;
11854;SDS011;5987;53.140;8.904;2023-11-19T03:30:11;25.20;;;13.40;;
11854;SDS011;5987;53.140;8.904;2023-11-19T03:33:15;26.70;;;12.97;;
11854;SDS011;5987;53.140;8.904;2023-11-19T03:36:19;27.43;;;14.23;;
11854;SDS011;5987;53.140;8.904;2023-11-19T03:39:23;25.97;;;14.87;;
11854;SDS011;5987;53.140;8.904;2023-11-19T03:42:28;27.03;;;15.43;;
11854;SDS011;5987;53.140;8.904;2023-11-19T03:45:33;29.97;;;14.27;;
11854;SDS011;5987;53.140;8.904;2023-11-19T03:48:37;34.97;;;16.20;;
11854;SDS011;5987;53.140;8.904;2023-11-19T03:51:41;36.20;;;15.60;;
11854;SDS011;5987;53.140;8.904;2023-11-19T03:54:46;29.23;;;15.53;;
11854;SDS011;5987;53.140;8.904;2023-11-19T03:57:50;32.37;;;14.37;;
11854;SDS011;5987;53.140;8.904;2023-11-19T04:00:55;25.43;;;13.53;;
11854;SDS011;5987;53.140;8.904;2023-11-19T04:03:59;28.90;;;13.03;;
11854;SDS011;5987;53.140;8.904;2023-11-19T04:07:03;22.70;;;12.50;;
11854;SDS011;5987;53.140;8.904;2023-11-19T04:10:08;22.83;;;13.03;;
11854;SDS011;5987;53.140;8.904;2023-11-19T04:13:12;30.00;;;12.97;;
11854;SDS011;5987;53.140;8.904;2023-11-19T04:16:17;28.40;;;12.43;;
11854;SDS011;5987;53.140;8.904;2023-11-19T04:19:21;28.07;;;13.43;;
11854;SDS011;5987;53.140;8.904;2023-11-19T04:22:26;25.73;;;12.13;;
11854;SDS011;5987;53.140;8.904;2023-11-19T04:25:29;26.90;;;13.17;;
11854;SDS011;5987;53.140;8.904;2023-11-19T04:28:33;22.83;;;12.83;;
11854;SDS011;5987;53.140;8.904;2023-11-19T04:31:38;26.70;;;12.17;;
11854;SDS011;5987;53.140;8.904;2023-11-19T04:34:42;25.20;;;11.97;;
11854;SDS011;5987;53.140;8.904;2023-11-19T04:37:46;24.40;;;12.03;;
11854;SDS011;5987;53.140;8.904;2023-11-19T04:40:50;24.83;;;13.07;;
11854;SDS011;5987;53.140;8.904;2023-11-19T04:43:54;32.30;;;13.60;;
11854;SDS011;5987;53.140;8.904;2023-11-19T04:47:00;24.10;;;13.57;;
11854;SDS011;5987;53.140;8.904;2023-11-19T04:50:04;23.97;;;12.23;;
11854;SDS011;5987;53.140;8.904;2023-11-19T04:53:12;25.47;;;13.40;;
11854;SDS011;5987;53.140;8.904;2023-11-19T04:56:17;27.60;;;12.20;;
11854;SDS011;5987;53.140;8.904;2023-11-19T04:59:21;34.83;;;13.60;;
11854;SDS011;5987;53.140;8.904;2023-11-19T05:02:26;23.13;;;10.80;;
11854;SDS011;5987;53.140;8.904;2023-11-19T05:05:30;24.10;;;11.63;;
11854;SDS011;5987;53.140;8.904;2023-11-19T05:08:34;34.17;;;12.73;;
11854;SDS011;5987;53.140;8.904;2023-11-19T05:11:38;24.03;;;11.17;;
11854;SDS011;5987;53.140;8.904;2023-11-19T05:14:45;23.33;;;11.20;;
11854;SDS011;5987;53.140;8.904;2023-11-19T05:17:53;19.77;;;10.53;;
11854;SDS011;5987;53.140;8.904;2023-11-19T05:20:56;25.83;;;11.03;;
11854;SDS011;5987;53.140;8.904;2023-11-19T05:24:00;22.67;;;10.90;;
11854;SDS011;5987;53.140;8.904;2023-11-19T05:27:05;19.87;;;10.67;;
11854;SDS011;5987;53.140;8.904;2023-11-19T05:30:10;24.63;;;11.50;;
11854;SDS011;5987;53.140;8.904;2023-11-19T05:33:15;27.20;;;12.00;;
11854;SDS011;5987;53.140;8.904;2023-11-19T05:36:19;18.63;;;9.57;;
11854;SDS011;5987;53.140;8.904;2023-11-19T05:39:23;26.47;;;9.73;;
11854;SDS011;5987;53.140;8.904;2023-11-19T05:42:27;19.10;;;10.17;;
11854;SDS011;5987;53.140;8.904;2023-11-19T05:45:31;24.73;;;10.33;;
11854;SDS011;5987;53.140;8.904;2023-11-19T05:48:36;26.70;;;8.87;;
11854;SDS011;5987;53.140;8.904;2023-11-19T05:51:40;21.30;;;8.33;;
11854;SDS011;5987;53.140;8.904;2023-11-19T05:54:44;23.97;;;7.93;;
11854;SDS011;5987;53.140;8.904;2023-11-19T05:57:49;26.37;;;8.93;;
11854;SDS011;5987;53.140;8.904;2023-11-19T06:00:54;22.23;;;8.57;;
11854;SDS011;5987;53.140;8.904;2023-11-19T06:03:59;29.80;;;7.23;;
11854;SDS011;5987;53.140;8.904;2023-11-19T06:07:03;16.23;;;5.97;;
11854;SDS011;5987;53.140;8.904;2023-11-19T06:10:08;22.27;;;7.63;;
11854;SDS011;5987;53.140;8.904;2023-11-19T06:13:12;16.13;;;6.50;;
11854;SDS011;5987;53.140;8.904;2023-11-19T06:16:17;24.83;;;7.70;;
11854;SDS011;5987;53.140;8.904;2023-11-19T06:19:22;28.87;;;7.70;;
11854;SDS011;5987;53.140;8.904;2023-11-19T06:22:31;27.90;;;7.67;;
11854;SDS011;5987;53.140;8.904;2023-11-19T06:25:34;19.23;;;6.67;;
11854;SDS011;5987;53.140;8.904;2023-11-19T06:28:38;28.23;;;6.27;;
11854;SDS011;5987;53.140;8.904;2023-11-19T06:31:42;25.67;;;6.70;;
11854;SDS011;5987;53.140;8.904;2023-11-19T06:34:47;24.07;;;6.17;;
11854;SDS011;5987;53.140;8.904;2023-11-19T06:37:50;17.73;;;6.83;;
11854;SDS011;5987;53.140;8.904;2023-11-19T06:40:54;28.50;;;6.10;;
11854;SDS011;5987;53.140;8.904;2023-11-19T06:43:58;28.20;;;7.37;;
11854;SDS011;5987;53.140;8.904;2023-11-19T06:47:02;20.57;;;6.03;;
11854;SDS011;5987;53.140;8.904;2023-11-19T06:50:07;15.60;;;4.67;;
11854;SDS011;5987;53.140;8.904;2023-11-19T06:53:13;19.57;;;4.93;;
11854;SDS011;5987;53.140;8.904;2023-11-19T06:56:18;17.80;;;4.13;;
11854;SDS011;5987;53.140;8.904;2023-11-19T06:59:23;20.73;;;4.60;;
11854;SDS011;5987;53.140;8.904;2023-11-19T07:02:27;21.60;;;5.00;;
11854;SDS011;5987;53.140;8.904;2023-11-19T07:05:32;21.23;;;4.33;;
11854;SDS011;5987;53.140;8.904;2023-11-19T07:08:37;30.90;;;5.47;;
11854;SDS011;5987;53.140;8.904;2023-11-19T07:11:41;28.73;;;5.60;;
11854;SDS011;5987;53.140;8.904;2023-11-19T07:14:47;17.90;;;4.07;;
11854;SDS011;5987;53.140;8.904;2023-11-19T07:17:50;24.23;;;5.10;;
11854;SDS011;5987;53.140;8.904;2023-11-19T07:21:00;23.23;;;4.33;;
11854;SDS011;5987;53.140;8.904;2023-11-19T07:24:05;23.33;;;4.80;;
11854;SDS011;5987;53.140;8.904;2023-11-19T07:27:09;23.97;;;5.60;;
11854;SDS011;5987;53.140;8.904;2023-11-19T07:30:14;19.83;;;4.33;;
11854;SDS011;5987;53.140;8.904;2023-11-19T07:33:17;15.87;;;4.43;;
11854;SDS011;5987;53.140;8.904;2023-11-19T07:36:23;23.20;;;4.90;;
11854;SDS011;5987;53.140;8.904;2023-11-19T07:39:26;18.70;;;4.17;;
11854;SDS011;5987;53.140;8.904;2023-11-19T07:42:30;19.63;;;4.40;;
11854;SDS011;5987;53.140;8.904;2023-11-19T07:45:34;14.30;;;4.73;;
11854;SDS011;5987;53.140;8.904;2023-11-19T07:48:38;27.70;;;4.50;;
11854;SDS011;5987;53.140;8.904;2023-11-19T07:51:43;19.63;;;4.50;;
11854;SDS011;5987;53.140;8.904;2023-11-19T07:54:47;24.73;;;4.67;;
11854;SDS011;5987;53.140;8.904;2023-11-19T07:57:51;16.67;;;3.53;;
11854;SDS011;5987;53.140;8.904;2023-11-19T08:00:54;17.40;;;3.97;;
11854;SDS011;5987;53.140;8.904;2023-11-19T08:03:58;19.93;;;4.77;;
11854;SDS011;5987;53.140;8.904;2023-11-19T08:07:05;23.57;;;4.37;;
11854;SDS011;5987;53.140;8.904;2023-11-19T08:10:08;22.07;;;4.57;;
11854;SDS011;5987;53.140;8.904;2023-11-19T08:13:12;21.67;;;5.03;;
11854;SDS011;5987;53.140;8.904;2023-11-19T08:16:16;15.60;;;3.90;;
11854;SDS011;5987;53.140;8.904;2023-11-19T08:19:20;24.33;;;5.30;;
11854;SDS011;5987;53.140;8.904;2023-11-19T08:22:25;18.33;;;4.57;;
11854;SDS011;5987;53.140;8.904;2023-11-19T08:25:29;19.17;;;4.50;;
11854;SDS011;5987;53.140;8.904;2023-11-19T08:28:35;22.30;;;4.53;;
11854;SDS011;5987;53.140;8.904;2023-11-19T08:31:40;20.37;;;5.83;;
11854;SDS011;5987;53.140;8.904;2023-11-19T08:34:44;27.37;;;5.20;;
11854;SDS011;5987;53.140;8.904;2023-11-19T08:37:49;24.70;;;4.17;;
11854;SDS011;5987;53.140;8.904;2023-11-19T08:40:54;21.93;;;4.87;;
11854;SDS011;5987;53.140;8.904;2023-11-19T08:44:01;22.30;;;4.57;;
11854;SDS011;5987;53.140;8.904;2023-11-19T08:47:05;21.60;;;4.30;;
11854;SDS011;5987;53.140;8.904;2023-11-19T08:50:09;20.57;;;3.43;;
11854;SDS011;5987;53.140;8.904;2023-11-19T08:53:14;14.93;;;4.07;;
11854;SDS011;5987;53.140;8.904;2023-11-19T08:56:18;17.90;;;4.87;;
11854;SDS011;5987;53.140;8.904;2023-11-19T08:59:22;28.37;;;4.53;;
11854;SDS011;5987;53.140;8.904;2023-11-19T09:02:26;18.53;;;6.30;;
11854;SDS011;5987;53.140;8.904;2023-11-19T09:05:30;24.13;;;5.73;;
11854;SDS011;5987;53.140;8.904;2023-11-19T09:08:35;23.13;;;5.03;;
11854;SDS011;5987;53.140;8.904;2023-11-19T09:11:39;20.63;;;4.17;;
11854;SDS011;5987;53.140;8.904;2023-11-19T09:14:43;21.20;;;4.67;;
11854;SDS011;5987;53.140;8.904;2023-11-19T09:17:47;26.63;;;4.93;;
11854;SDS011;5987;53.140;8.904;2023-11-19T09:20:51;20.70;;;4.10;;
11854;SDS011;5987;53.140;8.904;2023-11-19T09:23:56;17.73;;;5.03;;
11854;SDS011;5987;53.140;8.904;2023-11-19T09:26:59;20.23;;;3.97;;
11854;SDS011;5987;53.140;8.904;2023-11-19T09:30:03;20.00;;;4.13;;
11854;SDS011;5987;53.140;8.904;2023-11-19T09:33:09;17.40;;;3.77;;
11854;SDS011;5987;53.140;8.904;2023-11-19T09:36:13;16.00;;;4.80;;
11854;SDS011;5987;53.140;8.904;2023-11-19T09:39:21;16.63;;;4.80;;
11854;SDS011;5987;53.140;8.904;2023-11-19T09:42:24;22.50;;;3.60;;
11854;SDS011;5987;53.140;8.904;2023-11-19T09:45:28;15.00;;;4.07;;
11854;SDS011;5987;53.140;8.904;2023-11-19T09:48:40;23.00;;;4.10;;
11854;SDS011;5987;53.140;8.904;2023-11-19T09:51:45;21.37;;;3.87;;
11854;SDS011;5987;53.140;8.904;2023-11-19T09:54:50;15.03;;;3.83;;
11854;SDS011;5987;53.140;8.904;2023-11-19T09:57:54;19.80;;;4.00;;
11854;SDS011;5987;53.140;8.904;2023-11-19T10:01:01;16.37;;;4.23;;
11854;SDS011;5987;53.140;8.904;2023-11-19T10:04:12;15.47;;;3.50;;
11854;SDS011;5987;53.140;8.904;2023-11-19T10:07:19;21.57;;;4.97;;
11854;SDS011;5987;53.140;8.904;2023-11-19T10:10:29;21.10;;;4.13;;
11854;SDS011;5987;53.140;8.904;2023-11-19T10:13:34;19.00;;;4.80;;
11854;SDS011;5987;53.140;8.904;2023-11-19T10:16:40;26.70;;;6.10;;
11854;SDS011;5987;53.140;8.904;2023-11-19T10:19:48;23.80;;;6.13;;
11854;SDS011;5987;53.140;8.904;2023-11-19T10:22:52;22.87;;;5.47;;
11854;SDS011;5987;53.140;8.904;2023-11-19T10:26:03;25.07;;;4.63;;
11854;SDS011;5987;53.140;8.904;2023-11-19T10:29:07;16.80;;;3.63;;
11854;SDS011;5987;53.140;8.904;2023-11-19T10:32:12;21.43;;;4.03;;
11854;SDS011;5987;53.140;8.904;2023-11-19T10:35:27;15.90;;;4.77;;
11854;SDS011;5987;53.140;8.904;2023-11-19T10:38:31;22.57;;;4.40;;
11854;SDS011;5987;53.140;8.904;2023-11-19T10:41:36;12.43;;;3.83;;
11854;SDS011;5987;53.140;8.904;2023-11-19T10:44:41;16.53;;;2.70;;
11854;SDS011;5987;53.140;8.904;2023-11-19T10:47:46;17.77;;;4.00;;
11854;SDS011;5987;53.140;8.904;2023-11-19T10:50:53;16.90;;;3.50;;
11854;SDS011;5987;53.140;8.904;2023-11-19T10:53:57;11.63;;;2.93;;
11854;SDS011;5987;53.140;8.904;2023-11-19T10:57:08;16.50;;;4.47;;
11854;SDS011;5987;53.140;8.904;2023-11-19T11:00:19;14.23;;;3.67;;
11854;SDS011;5987;53.140;8.904;2023-11-19T11:03:29;14.97;;;3.07;;
11854;SDS011;5987;53.140;8.904;2023-11-19T11:06:42;19.17;;;3.43;;
11854;SDS011;5987;53.140;8.904;2023-11-19T11:09:46;17.70;;;4.47;;
11854;SDS011;5987;53.140;8.904;2023-11-19T11:12:53;30.90;;;4.50;;
11854;SDS011;5987;53.140;8.904;2023-11-19T11:16:02;21.47;;;5.23;;
11854;SDS011;5987;53.140;8.904;2023-11-19T11:19:09;16.83;;;4.07;;
11854;SDS011;5987;53.140;8.904;2023-11-19T11:22:14;21.90;;;5.23;;
11854;SDS011;5987;53.140;8.904;2023-11-19T11:25:28;17.60;;;4.37;;
11854;SDS011;5987;53.140;8.904;2023-11-19T11:28:52;15.03;;;3.67;;
11854;SDS011;5987;53.140;8.904;2023-11-19T11:32:08;24.73;;;4.17;;
11854;SDS011;5987;53.140;8.904;2023-11-19T11:35:30;15.80;;;4.53;;
11854;SDS011;5987;53.140;8.904;2023-11-19T11:38:49;29.43;;;5.30;;
11854;SDS011;5987;53.140;8.904;2023-11-19T11:45:40;16.67;;;4.07;;
11854;SDS011;5987;53.140;8.904;2023-11-19T11:48:47;21.40;;;4.97;;
11854;SDS011;5987;53.140;8.904;2023-11-19T11:51:57;19.50;;;5.00;;
11854;SDS011;5987;53.140;8.904;2023-11-19T11:55:06;18.77;;;3.77;;
11854;SDS011;5987;53.140;8.904;2023-11-19T11:58:11;17.50;;;3.70;;
11854;SDS011;5987;53.140;8.904;2023-11-19T12:01:17;22.10;;;4.10;;
11854;SDS011;5987;53.140;8.904;2023-11-19T12:04:25;23.93;;;4.60;;
11854;SDS011;5987;53.140;8.904;2023-11-19T12:07:30;28.77;;;4.67;;
11854;SDS011;5987;53.140;8.904;2023-11-19T12:10:43;12.47;;;3.67;;
11854;SDS011;5987;53.140;8.904;2023-11-19T12:13:54;19.30;;;3.80;;
11854;SDS011;5987;53.140;8.904;2023-11-19T12:17:04;18.70;;;4.27;;
11854;SDS011;5987;53.140;8.904;2023-11-19T12:20:42;14.70;;;2.90;;
11854;SDS011;5987;53.140;8.904;2023-11-19T12:23:45;17.17;;;4.07;;
11854;SDS011;5987;53.140;8.904;2023-11-19T12:26:51;18.00;;;4.40;;
11854;SDS011;5987;53.140;8.904;2023-11-19T12:29:56;22.03;;;5.70;;
11854;SDS011;5987;53.140;8.904;2023-11-19T12:33:07;20.10;;;5.17;;
11854;SDS011;5987;53.140;8.904;2023-11-19T12:36:12;18.70;;;3.80;;
11854;SDS011;5987;53.140;8.904;2023-11-19T12:39:16;15.43;;;4.10;;
11854;SDS011;5987;53.140;8.904;2023-11-19T12:42:21;20.57;;;4.70;;
11854;SDS011;5987;53.140;8.904;2023-11-19T12:45:39;21.60;;;4.23;;
11854;SDS011;5987;53.140;8.904;2023-11-19T12:48:44;22.23;;;3.97;;
11854;SDS011;5987;53.140;8.904;2023-11-19T12:51:50;21.70;;;3.60;;
11854;SDS011;5987;53.140;8.904;2023-11-19T12:54:56;17.47;;;4.23;;
11854;SDS011;5987;53.140;8.904;2023-11-19T12:58:00;20.53;;;3.57;;
11854;SDS011;5987;53.140;8.904;2023-11-19T13:01:05;23.03;;;4.10;;
11854;SDS011;5987;53.140;8.904;2023-11-19T13:04:19;20.17;;;4.00;;
11854;SDS011;5987;53.140;8.904;2023-11-19T13:07:22;15.03;;;3.37;;
11854;SDS011;5987;53.140;8.904;2023-11-19T13:10:26;16.30;;;4.30;;
11854;SDS011;5987;53.140;8.904;2023-11-19T13:13:31;13.37;;;3.53;;
11854;SDS011;5987;53.140;8.904;2023-11-19T13:16:36;17.60;;;3.03;;
11854;SDS011;5987;53.140;8.904;2023-11-19T13:19:42;11.27;;;2.20;;
11854;SDS011;5987;53.140;8.904;2023-11-19T13:22:58;12.07;;;1.80;;
11854;SDS011;5987;53.140;8.904;2023-11-19T13:26:05;10.73;;;1.90;;
11854;SDS011;5987;53.140;8.904;2023-11-19T13:29:10;6.37;;;1.57;;
11854;SDS011;5987;53.140;8.904;2023-11-19T13:32:14;1.47;;;0.93;;
11854;SDS011;5987;53.140;8.904;2023-11-19T13:35:19;6.83;;;1.53;;
11854;SDS011;5987;53.140;8.904;2023-11-19T13:38:24;7.60;;;1.10;;
11854;SDS011;5987;53.140;8.904;2023-11-19T13:41:27;4.60;;;0.93;;
11854;SDS011;5987;53.140;8.904;2023-11-19T13:44:32;3.10;;;1.03;;
11854;SDS011;5987;53.140;8.904;2023-11-19T13:47:35;7.47;;;0.90;;
11854;SDS011;5987;53.140;8.904;2023-11-19T13:50:40;1.33;;;0.70;;
11854;SDS011;5987;53.140;8.904;2023-11-19T13:53:45;3.60;;;0.97;;
11854;SDS011;5987;53.140;8.904;2023-11-19T13:56:54;4.07;;;1.17;;
11854;SDS011;5987;53.140;8.904;2023-11-19T13:59:59;4.23;;;1.17;;
11854;SDS011;5987;53.140;8.904;2023-11-19T14:03:07;5.70;;;1.47;;
11854;SDS011;5987;53.140;8.904;2023-11-19T14:06:13;1.80;;;0.90;;
11854;SDS011;5987;53.140;8.904;2023-11-19T14:09:17;4.00;;;1.50;;
11854;SDS011;5987;53.140;8.904;2023-11-19T14:12:21;5.50;;;1.53;;
11854;SDS011;5987;53.140;8.904;2023-11-19T14:15:25;5.30;;;1.43;;
11854;SDS011;5987;53.140;8.904;2023-11-19T14:18:28;9.77;;;3.03;;
11854;SDS011;5987;53.140;8.904;2023-11-19T14:21:34;6.30;;;2.17;;
11854;SDS011;5987;53.140;8.904;2023-11-19T14:24:38;10.83;;;2.83;;
11854;SDS011;5987;53.140;8.904;2023-11-19T14:27:44;10.10;;;2.37;;
11854;SDS011;5987;53.140;8.904;2023-11-19T14:30:48;9.37;;;2.80;;
11854;SDS011;5987;53.140;8.904;2023-11-19T14:33:59;8.80;;;3.10;;
11854;SDS011;5987;53.140;8.904;2023-11-19T14:37:04;10.07;;;2.70;;
11854;SDS011;5987;53.140;8.904;2023-11-19T14:40:09;16.23;;;3.80;;
11854;SDS011;5987;53.140;8.904;2023-11-19T14:43:13;15.23;;;3.60;;
11854;SDS011;5987;53.140;8.904;2023-11-19T14:46:18;14.37;;;4.57;;
11854;SDS011;5987;53.140;8.904;2023-11-19T14:49:22;19.17;;;5.57;;
11854;SDS011;5987;53.140;8.904;2023-11-19T14:52:28;22.70;;;5.40;;
11854;SDS011;5987;53.140;8.904;2023-11-19T14:55:32;17.07;;;4.37;;
11854;SDS011;5987;53.140;8.904;2023-11-19T14:58:35;17.43;;;3.80;;
11854;SDS011;5987;53.140;8.904;2023-11-19T15:01:40;20.20;;;5.00;;
11854;SDS011;5987;53.140;8.904;2023-11-19T15:04:44;22.07;;;4.07;;
11854;SDS011;5987;53.140;8.904;2023-11-19T15:07:49;15.50;;;3.23;;
11854;SDS011;5987;53.140;8.904;2023-11-19T15:10:53;17.07;;;3.87;;
11854;SDS011;5987;53.140;8.904;2023-11-19T15:13:58;16.90;;;4.43;;
11854;SDS011;5987;53.140;8.904;2023-11-19T15:17:02;11.20;;;2.70;;
11854;SDS011;5987;53.140;8.904;2023-11-19T15:20:08;8.87;;;2.77;;
11854;SDS011;5987;53.140;8.904;2023-11-19T15:23:18;13.23;;;3.53;;
11854;SDS011;5987;53.140;8.904;2023-11-19T15:26:23;6.00;;;1.83;;
11854;SDS011;5987;53.140;8.904;2023-11-19T15:29:27;11.73;;;2.97;;
11854;SDS011;5987;53.140;8.904;2023-11-19T15:32:31;16.47;;;2.73;;
11854;SDS011;5987;53.140;8.904;2023-11-19T15:35:35;14.43;;;2.40;;
11854;SDS011;5987;53.140;8.904;2023-11-19T15:38:42;9.80;;;2.57;;
11854;SDS011;5987;53.140;8.904;2023-11-19T15:41:48;16.17;;;3.80;;
11854;SDS011;5987;53.140;8.904;2023-11-19T15:44:52;9.00;;;2.83;;
11854;SDS011;5987;53.140;8.904;2023-11-19T15:47:56;8.43;;;2.70;;
11854;SDS011;5987;53.140;8.904;2023-11-19T15:51:00;10.40;;;3.00;;
11854;SDS011;5987;53.140;8.904;2023-11-19T15:54:06;11.60;;;2.67;;
11854;SDS011;5987;53.140;8.904;2023-11-19T15:57:10;9.87;;;2.73;;
11854;SDS011;5987;53.140;8.904;2023-11-19T16:00:15;9.40;;;2.67;;
11854;SDS011;5987;53.140;8.904;2023-11-19T16:03:22;9.57;;;3.10;;
11854;SDS011;5987;53.140;8.904;2023-11-19T16:06:26;17.17;;;2.77;;
11854;SDS011;5987;53.140;8.904;2023-11-19T16:09:32;8.77;;;4.03;;
11854;SDS011;5987;53.140;8.904;2023-11-19T16:12:39;14.07;;;3.50;;
11854;SDS011;5987;53.140;8.904;2023-11-19T16:15:44;18.47;;;3.37;;
11854;SDS011;5987;53.140;8.904;2023-11-19T16:18:48;15.60;;;3.23;;
11854;SDS011;5987;53.140;8.904;2023-11-19T16:21:51;15.67;;;3.47;;
11854;SDS011;5987;53.140;8.904;2023-11-19T16:24:57;12.57;;;3.50;;
11854;SDS011;5987;53.140;8.904;2023-11-19T16:28:00;9.77;;;3.47;;
11854;SDS011;5987;53.140;8.904;2023-11-19T16:31:06;14.53;;;4.00;;
11854;SDS011;5987;53.140;8.904;2023-11-19T16:34:10;23.23;;;4.07;;
11854;SDS011;5987;53.140;8.904;2023-11-19T16:37:14;12.90;;;3.17;;
11854;SDS011;5987;53.140;8.904;2023-11-19T16:40:19;9.53;;;2.53;;
11854;SDS011;5987;53.140;8.904;2023-11-19T16:43:25;21.63;;;4.13;;
11854;SDS011;5987;53.140;8.904;2023-11-19T16:46:31;6.30;;;2.93;;
11854;SDS011;5987;53.140;8.904;2023-11-19T16:49:36;15.87;;;3.43;;
11854;SDS011;5987;53.140;8.904;2023-11-19T16:52:40;19.57;;;4.77;;
11854;SDS011;5987;53.140;8.904;2023-11-19T16:55:46;11.80;;;2.53;;
11854;SDS011;5987;53.140;8.904;2023-11-19T16:58:51;15.60;;;3.97;;
11854;SDS011;5987;53.140;8.904;2023-11-19T17:01:55;7.57;;;2.90;;
11854;SDS011;5987;53.140;8.904;2023-11-19T17:04:59;14.70;;;3.30;;
11854;SDS011;5987;53.140;8.904;2023-11-19T17:08:04;11.03;;;3.53;;
11854;SDS011;5987;53.140;8.904;2023-11-19T17:11:09;8.73;;;2.77;;
11854;SDS011;5987;53.140;8.904;2023-11-19T17:14:13;13.90;;;2.80;;
11854;SDS011;5987;53.140;8.904;2023-11-19T17:17:17;14.83;;;3.87;;
11854;SDS011;5987;53.140;8.904;2023-11-19T17:20:21;12.23;;;2.67;;
11854;SDS011;5987;53.140;8.904;2023-11-19T17:23:24;17.03;;;2.80;;
11854;SDS011;5987;53.140;8.904;2023-11-19T17:26:30;19.53;;;3.93;;
11854;SDS011;5987;53.140;8.904;2023-11-19T17:29:37;11.43;;;2.87;;
11854;SDS011;5987;53.140;8.904;2023-11-19T17:32:41;10.63;;;3.40;;
11854;SDS011;5987;53.140;8.904;2023-11-19T17:35:45;17.90;;;3.60;;
11854;SDS011;5987;53.140;8.904;2023-11-19T17:38:49;11.37;;;2.97;;
11854;SDS011;5987;53.140;8.904;2023-11-19T17:41:54;16.27;;;3.80;;
11854;SDS011;5987;53.140;8.904;2023-11-19T17:44:58;15.00;;;3.27;;
11854;SDS011;5987;53.140;8.904;2023-11-19T17:48:03;13.00;;;3.80;;
11854;SDS011;5987;53.140;8.904;2023-11-19T17:51:07;10.43;;;3.37;;
11854;SDS011;5987;53.140;8.904;2023-11-19T17:54:12;20.13;;;3.37;;
11854;SDS011;5987;53.140;8.904;2023-11-19T17:57:17;13.97;;;4.60;;
11854;SDS011;5987;53.140;8.904;2023-11-19T18:00:21;16.03;;;4.20;;
11854;SDS011;5987;53.140;8.904;2023-11-19T18:03:25;12.47;;;3.00;;
11854;SDS011;5987;53.140;8.904;2023-11-19T18:06:29;14.63;;;3.43;;
11854;SDS011;5987;53.140;8.904;2023-11-19T18:09:32;9.60;;;3.63;;
11854;SDS011;5987;53.140;8.904;2023-11-19T18:12:38;14.50;;;4.00;;
11854;SDS011;5987;53.140;8.904;2023-11-19T18:15:43;14.40;;;4.10;;
11854;SDS011;5987;53.140;8.904;2023-11-19T18:18:47;12.03;;;3.23;;
11854;SDS011;5987;53.140;8.904;2023-11-19T18:21:51;18.53;;;4.27;;
11854;SDS011;5987;53.140;8.904;2023-11-19T18:24:54;10.83;;;3.50;;
11854;SDS011;5987;53.140;8.904;2023-11-19T18:28:00;15.13;;;4.60;;
11854;SDS011;5987;53.140;8.904;2023-11-19T18:31:04;12.83;;;3.37;;
11854;SDS011;5987;53.140;8.904;2023-11-19T18:34:09;14.57;;;4.33;;
11854;SDS011;5987;53.140;8.904;2023-11-19T18:37:13;10.17;;;4.30;;
11854;SDS011;5987;53.140;8.904;2023-11-19T18:40:18;12.87;;;3.53;;